PWSweather.com
Personal Weather Stations
Station Observations
SHAHALMS1
Eftra, Falkenberg, HA

EftraFalkenberg, HA

Lat: 56.85, Lon: 12.65

Elevation: 140

Station Type:

http://hem.passagen.se/risarp101

High Low Average
Temperature 69.8°F21.0°C 57.7°F14.3°C 62.8°F17.1°C
Dew Point 58.8°F14.9°C 50.9°F10.5°C 54.6°F12.6°C
Winds 12.8 mph 20.6 kmh 3.5 mph 5.6 kmh 7.0 mph W11.3 kmh W
Wind Gusts 37.9 mph61.0 kmh 8.6 mph13.8 kmh 19.0 mph30.6 kmh
Humidity 93% 59% 75%
Pressure 29.80 in1009.1 mb 29.74 in1007.1 mb -
Precipitation 1.07 in27.2 mm - -
Hour Temp Dew Point Humidity Winds Wind Gusts Pressure Precip Precip Rate Daily Precip Total
12:00 AM 61.5°F16.4°C 54.2°F12.3°C 77% 7.0 mph W11.3 kmh W 23.3 mph37.5 kmh 29.80 in1009.1 mb 0.00 in0.0 mm 0.00 in0.0 mm 0.00 in0.0 mm
12:10 AM 61.3°F16.3°C 54.1°F12.3°C 77% 5.6 mph WNW9.0 kmh WNW 16.8 mph27.0 kmh 29.80 in1009.1 mb 0.00 in0.0 mm 0.00 in0.0 mm 0.00 in0.0 mm
12:20 AM 61.5°F16.4°C 54.6°F12.6°C 78% 5.7 mph W9.2 kmh W 15.7 mph25.3 kmh 29.80 in1009.1 mb 0.00 in0.0 mm 0.00 in0.0 mm 0.00 in0.0 mm
12:30 AM 61.5°F16.4°C 54.6°F12.6°C 78% 6.6 mph WNW10.6 kmh WNW 17.2 mph27.7 kmh 29.77 in1008.1 mb 0.00 in0.0 mm 0.00 in0.0 mm 0.00 in0.0 mm
12:40 AM 61.5°F16.4°C 53.9°F12.2°C 76% 8.6 mph WNW13.8 kmh WNW 23.6 mph38.0 kmh 29.77 in1008.1 mb 0.00 in0.0 mm 0.00 in0.0 mm 0.00 in0.0 mm
12:50 AM 61.5°F16.4°C 54.2°F12.3°C 77% 7.9 mph WNW12.7 kmh WNW 17.5 mph28.2 kmh 29.80 in1009.1 mb 0.00 in0.0 mm 0.00 in0.0 mm 0.00 in0.0 mm
01:00 AM 61.5°F16.4°C 53.9°F12.2°C 76% 7.8 mph WNW12.6 kmh WNW 20.0 mph32.2 kmh 29.80 in1009.1 mb 0.00 in0.0 mm 0.00 in0.0 mm 0.00 in0.0 mm
01:10 AM 61.3°F16.3°C 54.1°F12.3°C 77% 6.9 mph WNW11.1 kmh WNW 20.0 mph32.2 kmh 29.80 in1009.1 mb 0.00 in0.0 mm 0.00 in0.0 mm 0.00 in0.0 mm
01:20 AM 61.3°F16.3°C 54.4°F12.4°C 78% 5.8 mph W9.3 kmh W 17.2 mph27.7 kmh 29.80 in1009.1 mb 0.00 in0.0 mm 0.00 in0.0 mm 0.00 in0.0 mm
01:30 AM 61.2°F16.2°C 54.2°F12.3°C 78% 6.2 mph W10.0 kmh W 20.4 mph32.8 kmh 29.80 in1009.1 mb 0.00 in0.0 mm 0.00 in0.0 mm 0.00 in0.0 mm
01:40 AM 61.0°F16.1°C 54.1°F12.3°C 78% 5.9 mph WNW9.5 kmh WNW 14.0 mph22.5 kmh 29.80 in1009.1 mb 0.00 in0.0 mm 0.00 in0.0 mm 0.00 in0.0 mm
01:50 AM 60.8°F16.0°C 54.2°F12.3°C 79% 5.5 mph WNW8.9 kmh WNW 22.9 mph36.9 kmh 29.77 in1008.1 mb 0.00 in0.0 mm 0.00 in0.0 mm 0.00 in0.0 mm
02:00 AM 60.8°F16.0°C 54.6°F12.6°C 80% 4.7 mph W7.6 kmh W 10.4 mph16.7 kmh 29.77 in1008.1 mb 0.00 in0.0 mm 0.00 in0.0 mm 0.00 in0.0 mm
02:10 AM 61.0°F16.1°C 54.8°F12.7°C 80% 5.7 mph W9.2 kmh W 15.7 mph25.3 kmh 29.77 in1008.1 mb 0.00 in0.0 mm 0.00 in0.0 mm 0.00 in0.0 mm
02:20 AM 60.8°F16.0°C 54.6°F12.6°C 80% 5.8 mph W9.3 kmh W 14.0 mph22.5 kmh 29.77 in1008.1 mb 0.00 in0.0 mm 0.00 in0.0 mm 0.00 in0.0 mm
02:30 AM 60.4°F15.8°C 53.9°F12.2°C 79% 4.4 mph WNW7.1 kmh WNW 13.6 mph21.9 kmh 29.74 in1007.1 mb 0.00 in0.0 mm 0.00 in0.0 mm 0.00 in0.0 mm
02:40 AM 60.3°F15.7°C 54.1°F12.3°C 80% 4.1 mph W6.6 kmh W 9.3 mph15.0 kmh 29.74 in1007.1 mb 0.00 in0.0 mm 0.00 in0.0 mm 0.00 in0.0 mm
02:50 AM 60.4°F15.8°C 54.6°F12.6°C 81% 4.1 mph W6.6 kmh W 11.1 mph17.9 kmh 29.74 in1007.1 mb 0.00 in0.0 mm 0.00 in0.0 mm 0.00 in0.0 mm
03:00 AM 60.4°F15.8°C 55.3°F12.9°C 83% 5.7 mph W9.2 kmh W 15.4 mph24.8 kmh 29.77 in1008.1 mb 0.00 in0.0 mm 0.00 in0.0 mm 0.00 in0.0 mm
03:10 AM 60.4°F15.8°C 55.3°F12.9°C 83% 5.2 mph W8.4 kmh W 11.5 mph18.5 kmh 29.77 in1008.1 mb 0.00 in0.0 mm 0.00 in0.0 mm 0.00 in0.0 mm
03:20 AM 60.3°F15.7°C 55.1°F12.8°C 83% 4.6 mph W7.4 kmh W 12.2 mph19.6 kmh 29.80 in1009.1 mb 0.00 in0.0 mm 0.00 in0.0 mm 0.00 in0.0 mm
03:30 AM 60.1°F15.6°C 54.9°F12.7°C 83% 5.5 mph W8.9 kmh W 15.4 mph24.8 kmh 29.77 in1008.1 mb 0.00 in0.0 mm 0.00 in0.0 mm 0.00 in0.0 mm
03:40 AM 59.9°F15.5°C 54.7°F12.6°C 83% 5.2 mph WNW8.4 kmh WNW 14.0 mph22.5 kmh 29.77 in1008.1 mb 0.00 in0.0 mm 0.00 in0.0 mm 0.00 in0.0 mm
03:50 AM 59.7°F15.4°C 54.5°F12.5°C 83% 5.2 mph W8.4 kmh W 11.8 mph19.0 kmh 29.77 in1008.1 mb 0.00 in0.0 mm 0.00 in0.0 mm 0.00 in0.0 mm
04:00 AM 59.9°F15.5°C 55.1°F12.8°C 84% 5.0 mph W8.0 kmh W 12.2 mph19.6 kmh 29.77 in1008.1 mb 0.00 in0.0 mm 0.00 in0.0 mm 0.00 in0.0 mm
04:10 AM 60.3°F15.7°C 55.7°F13.2°C 85% 6.1 mph WNW9.8 kmh WNW 14.0 mph22.5 kmh 29.77 in1008.1 mb 0.00 in0.0 mm 0.00 in0.0 mm 0.00 in0.0 mm
04:20 AM 60.6°F15.9°C 56.1°F13.4°C 85% 6.2 mph W10.0 kmh W 15.7 mph25.3 kmh 29.77 in1008.1 mb 0.00 in0.0 mm 0.00 in0.0 mm 0.00 in0.0 mm
04:30 AM 61.0°F16.1°C 56.1°F13.4°C 84% 4.3 mph WSW6.9 kmh WSW 11.5 mph18.5 kmh 29.77 in1008.1 mb 0.00 in0.0 mm 0.00 in0.0 mm 0.00 in0.0 mm
04:40 AM 61.2°F16.2°C 56.3°F13.5°C 84% 6.7 mph W10.8 kmh W 16.1 mph25.9 kmh 29.77 in1008.1 mb 0.00 in0.0 mm 0.00 in0.0 mm 0.00 in0.0 mm
04:50 AM 61.2°F16.2°C 56.3°F13.5°C 84% 4.4 mph W7.1 kmh W 11.8 mph19.0 kmh 29.74 in1007.1 mb 0.00 in0.0 mm 0.00 in0.0 mm 0.00 in0.0 mm
05:00 AM 61.2°F16.2°C 56.3°F13.5°C 84% 4.0 mph W6.4 kmh W 11.8 mph19.0 kmh 29.77 in1008.1 mb 0.00 in0.0 mm 0.00 in0.0 mm 0.00 in0.0 mm
05:10 AM 61.5°F16.4°C 56.3°F13.5°C 83% 5.1 mph W8.2 kmh W 15.0 mph24.1 kmh 29.77 in1008.1 mb 0.00 in0.0 mm 0.00 in0.0 mm 0.00 in0.0 mm
05:20 AM 61.5°F16.4°C 56.3°F13.5°C 83% 5.4 mph WNW8.7 kmh WNW 11.5 mph18.5 kmh 29.77 in1008.1 mb 0.00 in0.0 mm 0.00 in0.0 mm 0.00 in0.0 mm
05:30 AM 61.5°F16.4°C 56.3°F13.5°C 83% 4.2 mph W6.8 kmh W 8.6 mph13.8 kmh 29.77 in1008.1 mb 0.00 in0.0 mm 0.00 in0.0 mm 0.00 in0.0 mm
05:40 AM 61.9°F16.6°C 56.3°F13.5°C 82% 6.2 mph WNW10.0 kmh WNW 21.1 mph34.0 kmh 29.77 in1008.1 mb 0.00 in0.0 mm 0.00 in0.0 mm 0.00 in0.0 mm
05:50 AM 61.9°F16.6°C 56.3°F13.5°C 82% 5.3 mph WNW8.5 kmh WNW 15.7 mph25.3 kmh 29.77 in1008.1 mb 0.00 in0.0 mm 0.00 in0.0 mm 0.00 in0.0 mm
06:00 AM 61.9°F16.6°C 56.3°F13.5°C 82% 5.3 mph WNW8.5 kmh WNW 11.8 mph19.0 kmh 29.77 in1008.1 mb 0.00 in0.0 mm 0.00 in0.0 mm 0.00 in0.0 mm
06:10 AM 61.5°F16.4°C 56.0°F13.3°C 82% 6.0 mph W9.7 kmh W 15.7 mph25.3 kmh 29.77 in1008.1 mb 0.00 in0.0 mm 0.00 in0.0 mm 0.00 in0.0 mm
06:20 AM 61.2°F16.2°C 56.3°F13.5°C 84% 4.9 mph W7.9 kmh W 15.7 mph25.3 kmh 29.77 in1008.1 mb 0.00 in0.0 mm 0.00 in0.0 mm 0.00 in0.0 mm
06:30 AM 61.3°F16.3°C 56.5°F13.6°C 84% 4.5 mph W7.2 kmh W 9.3 mph15.0 kmh 29.77 in1008.1 mb 0.00 in0.0 mm 0.00 in0.0 mm 0.00 in0.0 mm
06:40 AM 61.7°F16.5°C 56.5°F13.6°C 83% 6.0 mph W9.7 kmh W 16.5 mph26.6 kmh 29.77 in1008.1 mb 0.00 in0.0 mm 0.00 in0.0 mm 0.00 in0.0 mm
06:50 AM 62.2°F16.8°C 56.7°F13.7°C 82% 5.3 mph W8.5 kmh W 12.5 mph20.1 kmh 29.77 in1008.1 mb 0.00 in0.0 mm 0.00 in0.0 mm 0.00 in0.0 mm
07:00 AM 62.4°F16.9°C 56.5°F13.6°C 81% 5.1 mph W8.2 kmh W 14.0 mph22.5 kmh 29.77 in1008.1 mb 0.00 in0.0 mm 0.00 in0.0 mm 0.00 in0.0 mm
07:10 AM 62.8°F17.1°C 55.8°F13.2°C 78% 6.1 mph WNW9.8 kmh WNW 15.7 mph25.3 kmh 29.77 in1008.1 mb 0.00 in0.0 mm 0.00 in0.0 mm 0.00 in0.0 mm
07:20 AM 63.5°F17.5°C 56.2°F13.4°C 77% 7.3 mph WNW11.7 kmh WNW 17.2 mph27.7 kmh 29.77 in1008.1 mb 0.00 in0.0 mm 0.00 in0.0 mm 0.00 in0.0 mm
07:30 AM 63.9°F17.7°C 56.5°F13.6°C 77% 6.5 mph W10.5 kmh W 16.1 mph25.9 kmh 29.77 in1008.1 mb 0.00 in0.0 mm 0.00 in0.0 mm 0.00 in0.0 mm
07:40 AM 65.1°F18.4°C 56.6°F13.7°C 74% 6.7 mph W10.8 kmh W 12.9 mph20.8 kmh 29.77 in1008.1 mb 0.00 in0.0 mm 0.00 in0.0 mm 0.00 in0.0 mm
07:50 AM 65.1°F18.4°C 55.5°F13.1°C 71% 6.5 mph W10.5 kmh W 16.1 mph25.9 kmh 29.77 in1008.1 mb 0.00 in0.0 mm 0.00 in0.0 mm 0.00 in0.0 mm
08:00 AM 66.6°F19.2°C 56.1°F13.4°C 69% 6.9 mph W11.1 kmh W 14.0 mph22.5 kmh 29.77 in1008.1 mb 0.00 in0.0 mm 0.00 in0.0 mm 0.00 in0.0 mm
08:10 AM 67.5°F19.7°C 56.1°F13.4°C 67% 6.9 mph W11.1 kmh W 14.0 mph22.5 kmh 29.77 in1008.1 mb 0.00 in0.0 mm 0.00 in0.0 mm 0.00 in0.0 mm
08:20 AM 68.5°F20.3°C 55.0°F12.8°C 62% 6.2 mph W10.0 kmh W 15.0 mph24.1 kmh 29.77 in1008.1 mb 0.00 in0.0 mm 0.00 in0.0 mm 0.00 in0.0 mm
08:30 AM 69.1°F20.6°C 55.5°F13.1°C 62% 6.0 mph WNW9.7 kmh WNW 17.5 mph28.2 kmh 29.77 in1008.1 mb 0.00 in0.0 mm 0.00 in0.0 mm 0.00 in0.0 mm
08:40 AM 69.8°F21.0°C 55.3°F12.9°C 60% 6.1 mph WNW9.8 kmh WNW 17.2 mph27.7 kmh 29.77 in1008.1 mb 0.00 in0.0 mm 0.00 in0.0 mm 0.00 in0.0 mm
08:50 AM 69.6°F20.9°C 55.1°F12.8°C 60% 6.7 mph W10.8 kmh W 17.5 mph28.2 kmh 29.77 in1008.1 mb 0.00 in0.0 mm 0.00 in0.0 mm 0.00 in0.0 mm
09:00 AM 69.3°F20.7°C 54.8°F12.7°C 60% 5.3 mph W8.5 kmh W 15.4 mph24.8 kmh 29.74 in1007.1 mb 0.00 in0.0 mm 0.00 in0.0 mm 0.00 in0.0 mm
09:10 AM 68.7°F20.4°C 54.7°F12.6°C 61% 6.8 mph WNW10.9 kmh WNW 25.4 mph40.9 kmh 29.74 in1007.1 mb 0.00 in0.0 mm 0.00 in0.0 mm 0.00 in0.0 mm
09:20 AM 68.7°F20.4°C 55.2°F12.9°C 62% 7.6 mph WNW12.2 kmh WNW 25.4 mph40.9 kmh 29.74 in1007.1 mb 0.00 in0.0 mm 0.00 in0.0 mm 0.00 in0.0 mm
09:30 AM 68.7°F20.4°C 54.7°F12.6°C 61% 5.6 mph W9.0 kmh W 17.5 mph28.2 kmh 29.77 in1008.1 mb 0.00 in0.0 mm 0.00 in0.0 mm 0.00 in0.0 mm
09:40 AM 69.1°F20.6°C 55.1°F12.8°C 61% 6.9 mph W11.1 kmh W 17.5 mph28.2 kmh 29.77 in1008.1 mb 0.00 in0.0 mm 0.00 in0.0 mm 0.00 in0.0 mm
09:50 AM 68.9°F20.5°C 54.9°F12.7°C 61% 6.7 mph W10.8 kmh W 16.5 mph26.6 kmh 29.74 in1007.1 mb 0.00 in0.0 mm 0.00 in0.0 mm 0.00 in0.0 mm
10:00 AM 69.3°F20.7°C 54.8°F12.7°C 60% 7.2 mph WSW11.6 kmh WSW 16.1 mph25.9 kmh 29.77 in1008.1 mb 0.00 in0.0 mm 0.00 in0.0 mm 0.00 in0.0 mm
10:10 AM 68.7°F20.4°C 54.3°F12.4°C 60% 7.2 mph WSW11.6 kmh WSW 19.7 mph31.7 kmh 29.77 in1008.1 mb 0.00 in0.0 mm 0.00 in0.0 mm 0.00 in0.0 mm
10:20 AM 67.8°F19.9°C 54.3°F12.4°C 62% 6.8 mph WSW10.9 kmh WSW 20.0 mph32.2 kmh 29.74 in1007.1 mb 0.00 in0.0 mm 0.00 in0.0 mm 0.00 in0.0 mm
10:30 AM 67.1°F19.5°C 54.5°F12.5°C 64% 6.5 mph WSW10.5 kmh WSW 21.1 mph34.0 kmh 29.77 in1008.1 mb 0.00 in0.0 mm 0.00 in0.0 mm 0.00 in0.0 mm
10:40 AM 66.9°F19.4°C 54.8°F12.7°C 65% 5.9 mph WSW9.5 kmh WSW 12.9 mph20.8 kmh 29.77 in1008.1 mb 0.00 in0.0 mm 0.00 in0.0 mm 0.00 in0.0 mm
10:50 AM 66.7°F19.3°C 57.8°F14.3°C 73% 8.4 mph SW13.5 kmh SW 23.3 mph37.5 kmh 29.77 in1008.1 mb 0.00 in0.0 mm 0.00 in0.0 mm 0.00 in0.0 mm
11:00 AM 64.9°F18.3°C 58.6°F14.8°C 80% 6.7 mph SW10.8 kmh SW 16.5 mph26.6 kmh 29.74 in1007.1 mb 0.00 in0.0 mm 0.00 in0.0 mm 0.00 in0.0 mm
11:10 AM 64.4°F18.0°C 58.8°F14.9°C 82% 8.4 mph SW13.5 kmh SW 19.3 mph31.1 kmh 29.74 in1007.1 mb 0.00 in0.0 mm 0.00 in0.0 mm 0.00 in0.0 mm
11:20 AM 64.4°F18.0°C 58.1°F14.5°C 80% 12.8 mph W20.6 kmh W 30.8 mph49.6 kmh 29.74 in1007.1 mb 0.00 in0.0 mm 0.00 in0.0 mm 0.00 in0.0 mm
11:50 AM 57.7°F14.3°C 51.6°F10.9°C 80% 8.3 mph WNW13.4 kmh WNW 21.5 mph34.6 kmh 29.80 in1009.1 mb 0.29 in7.4 mm 0.58 in14.7 mm 0.29 in7.4 mm
12:00 PM 57.7°F14.3°C 52.9°F11.6°C 84% 7.7 mph WNW12.4 kmh WNW 20.0 mph32.2 kmh 29.77 in1008.1 mb 0.38 in9.7 mm 0.11 in2.8 mm 0.38 in9.7 mm
12:10 PM 57.7°F14.3°C 53.9°F12.2°C 87% 5.8 mph WNW9.3 kmh WNW 15.7 mph25.3 kmh 29.77 in1008.1 mb 0.57 in14.5 mm 1.14 in29.0 mm 0.57 in14.5 mm
12:20 PM 58.1°F14.5°C 54.2°F12.3°C 87% 3.5 mph W5.6 kmh W 9.7 mph15.6 kmh 29.74 in1007.1 mb 0.57 in14.5 mm 0.00 in0.0 mm 0.57 in14.5 mm
12:30 PM 59.9°F15.5°C 57.9°F14.4°C 93% 5.5 mph WNW8.9 kmh WNW 14.0 mph22.5 kmh 29.77 in1008.1 mb 0.38 in9.7 mm 0.00 in0.0 mm 0.57 in14.5 mm
12:40 PM 60.3°F15.7°C 57.3°F14.1°C 90% 6.3 mph W10.1 kmh W 17.5 mph28.2 kmh 29.77 in1008.1 mb 0.34 in8.6 mm 0.00 in0.0 mm 0.57 in14.5 mm
12:50 PM 60.6°F15.9°C 56.7°F13.7°C 87% 6.5 mph WNW10.5 kmh WNW 16.8 mph27.0 kmh 29.77 in1008.1 mb 0.29 in7.4 mm 0.00 in0.0 mm 0.57 in14.5 mm
01:00 PM 61.7°F16.5°C 56.8°F13.8°C 84% 11.3 mph NW18.2 kmh NW 31.5 mph50.7 kmh 29.74 in1007.1 mb 0.19 in4.8 mm 0.00 in0.0 mm 0.57 in14.5 mm
01:10 PM 62.2°F16.8°C 55.6°F13.1°C 79% 8.6 mph NW13.8 kmh NW 26.5 mph42.6 kmh 29.74 in1007.1 mb 0.00 in0.0 mm 0.00 in0.0 mm 0.57 in14.5 mm
01:20 PM 62.6°F17.0°C 55.3°F12.9°C 77% 5.8 mph W9.3 kmh W 15.7 mph25.3 kmh 29.77 in1008.1 mb 0.00 in0.0 mm 0.00 in0.0 mm 0.57 in14.5 mm
01:30 PM 64.0°F17.8°C 57.4°F14.1°C 79% 5.7 mph WNW9.2 kmh WNW 16.5 mph26.6 kmh 29.77 in1008.1 mb 0.00 in0.0 mm 0.00 in0.0 mm 0.57 in14.5 mm
01:40 PM 64.6°F18.1°C 56.8°F13.8°C 76% 6.0 mph WNW9.7 kmh WNW 15.7 mph25.3 kmh 29.77 in1008.1 mb 0.00 in0.0 mm 0.00 in0.0 mm 0.57 in14.5 mm
01:50 PM 64.6°F18.1°C 56.8°F13.8°C 76% 7.2 mph W11.6 kmh W 20.0 mph32.2 kmh 29.77 in1008.1 mb 0.00 in0.0 mm 0.00 in0.0 mm 0.57 in14.5 mm
02:00 PM 65.7°F18.7°C 56.8°F13.8°C 73% 7.4 mph WNW11.9 kmh WNW 20.8 mph33.5 kmh 29.74 in1007.1 mb 0.00 in0.0 mm 0.00 in0.0 mm 0.57 in14.5 mm
02:10 PM 65.7°F18.7°C 55.6°F13.1°C 70% 10.1 mph WNW16.3 kmh WNW 31.5 mph50.7 kmh 29.74 in1007.1 mb 0.00 in0.0 mm 0.00 in0.0 mm 0.57 in14.5 mm
02:20 PM 66.6°F19.2°C 57.3°F14.1°C 72% 8.0 mph WNW12.9 kmh WNW 21.1 mph34.0 kmh 29.77 in1008.1 mb 0.00 in0.0 mm 0.00 in0.0 mm 0.57 in14.5 mm
02:30 PM 66.9°F19.4°C 56.8°F13.8°C 70% 7.3 mph WNW11.7 kmh WNW 17.2 mph27.7 kmh 29.77 in1008.1 mb 0.00 in0.0 mm 0.00 in0.0 mm 0.57 in14.5 mm
02:40 PM 66.6°F19.2°C 55.3°F12.9°C 67% 7.6 mph W12.2 kmh W 17.9 mph28.8 kmh 29.77 in1008.1 mb 0.00 in0.0 mm 0.00 in0.0 mm 0.57 in14.5 mm
02:50 PM 66.2°F19.0°C 54.5°F12.5°C 66% 9.8 mph WNW15.8 kmh WNW 23.3 mph37.5 kmh 29.77 in1008.1 mb 0.00 in0.0 mm 0.00 in0.0 mm 0.57 in14.5 mm
03:00 PM 66.4°F19.1°C 53.8°F12.1°C 64% 8.7 mph W14.0 kmh W 21.1 mph34.0 kmh 29.77 in1008.1 mb 0.00 in0.0 mm 0.00 in0.0 mm 0.57 in14.5 mm
03:10 PM 66.2°F19.0°C 52.3°F11.3°C 61% 9.3 mph WNW15.0 kmh WNW 23.3 mph37.5 kmh 29.77 in1008.1 mb 0.00 in0.0 mm 0.00 in0.0 mm 0.57 in14.5 mm
03:20 PM 65.8°F18.8°C 52.9°F11.6°C 63% 12.0 mph WNW19.3 kmh WNW 36.9 mph59.4 kmh 29.77 in1008.1 mb 0.00 in0.0 mm 0.00 in0.0 mm 0.57 in14.5 mm
03:30 PM 65.8°F18.8°C 52.9°F11.6°C 63% 10.3 mph WNW16.6 kmh WNW 37.6 mph60.5 kmh 29.77 in1008.1 mb 0.00 in0.0 mm 0.00 in0.0 mm 0.57 in14.5 mm
03:40 PM 66.4°F19.1°C 52.5°F11.4°C 61% 7.9 mph WNW12.7 kmh WNW 27.9 mph44.9 kmh 29.77 in1008.1 mb 0.00 in0.0 mm 0.00 in0.0 mm 0.57 in14.5 mm
03:50 PM 66.6°F19.2°C 52.7°F11.5°C 61% 9.9 mph W15.9 kmh W 37.2 mph59.9 kmh 29.77 in1008.1 mb 0.00 in0.0 mm 0.00 in0.0 mm 0.57 in14.5 mm
04:00 PM 66.9°F19.4°C 52.6°F11.4°C 60% 8.6 mph W13.8 kmh W 22.2 mph35.7 kmh 29.77 in1008.1 mb 0.00 in0.0 mm 0.00 in0.0 mm 0.57 in14.5 mm
04:10 PM 66.2°F19.0°C 51.4°F10.8°C 59% 9.4 mph W15.1 kmh W 19.7 mph31.7 kmh 29.77 in1008.1 mb 0.00 in0.0 mm 0.00 in0.0 mm 0.57 in14.5 mm
04:20 PM 66.2°F19.0°C 52.3°F11.3°C 61% 8.8 mph WNW14.2 kmh WNW 27.9 mph44.9 kmh 29.77 in1008.1 mb 0.00 in0.0 mm 0.00 in0.0 mm 0.57 in14.5 mm
04:30 PM 65.8°F18.8°C 52.0°F11.1°C 61% 10.5 mph WNW16.9 kmh WNW 30.8 mph49.6 kmh 29.77 in1008.1 mb 0.00 in0.0 mm 0.00 in0.0 mm 0.57 in14.5 mm
04:40 PM 65.8°F18.8°C 52.0°F11.1°C 61% 10.3 mph WNW16.6 kmh WNW 28.3 mph45.5 kmh 29.77 in1008.1 mb 0.00 in0.0 mm 0.00 in0.0 mm 0.57 in14.5 mm
04:50 PM 65.1°F18.4°C 51.8°F11.0°C 62% 7.1 mph W11.4 kmh W 19.3 mph31.1 kmh 29.77 in1008.1 mb 0.00 in0.0 mm 0.00 in0.0 mm 0.57 in14.5 mm
05:00 PM 63.9°F17.7°C 51.9°F11.1°C 65% 8.0 mph W12.9 kmh W 27.2 mph43.8 kmh 29.77 in1008.1 mb 0.05 in1.3 mm 0.06 in1.5 mm 0.62 in15.7 mm
05:10 PM 63.5°F17.5°C 51.9°F11.1°C 66% 6.7 mph W10.8 kmh W 24.7 mph39.8 kmh 29.77 in1008.1 mb 0.05 in1.3 mm 0.00 in0.0 mm 0.62 in15.7 mm
05:20 PM 63.3°F17.4°C 52.2°F11.2°C 67% 6.7 mph WNW10.8 kmh WNW 17.2 mph27.7 kmh 29.77 in1008.1 mb 0.05 in1.3 mm 0.00 in0.0 mm 0.62 in15.7 mm
05:30 PM 62.8°F17.1°C 51.2°F10.7°C 66% 10.0 mph W16.1 kmh W 24.3 mph39.1 kmh 29.77 in1008.1 mb 0.49 in12.4 mm 2.64 in67.1 mm 1.07 in27.2 mm
05:40 PM 62.8°F17.1°C 52.1°F11.2°C 68% 7.8 mph WNW12.6 kmh WNW 21.8 mph35.1 kmh 29.77 in1008.1 mb 0.49 in12.4 mm 0.00 in0.0 mm 1.07 in27.2 mm
05:50 PM 63.1°F17.3°C 52.8°F11.6°C 69% 6.9 mph W11.1 kmh W 21.1 mph34.0 kmh 29.77 in1008.1 mb 0.49 in12.4 mm 0.00 in0.0 mm 1.07 in27.2 mm
06:00 PM 62.8°F17.1°C 52.5°F11.4°C 69% 8.1 mph WNW13.0 kmh WNW 23.3 mph37.5 kmh 29.77 in1008.1 mb 0.45 in11.4 mm 0.00 in0.0 mm 1.07 in27.2 mm
06:10 PM 62.4°F16.9°C 53.6°F12.0°C 73% 8.2 mph NW13.2 kmh NW 16.8 mph27.0 kmh 29.77 in1008.1 mb 0.45 in11.4 mm 0.00 in0.0 mm 1.07 in27.2 mm
06:20 PM 62.1°F16.7°C 53.3°F11.8°C 73% 7.9 mph WNW12.7 kmh WNW 20.8 mph33.5 kmh 29.77 in1008.1 mb 0.45 in11.4 mm 0.00 in0.0 mm 1.07 in27.2 mm
06:30 PM 62.1°F16.7°C 53.7°F12.1°C 74% 6.8 mph W10.9 kmh W 20.0 mph32.2 kmh 29.77 in1008.1 mb 0.00 in0.0 mm 0.00 in0.0 mm 1.07 in27.2 mm
06:40 PM 62.1°F16.7°C 53.3°F11.8°C 73% 6.6 mph WNW10.6 kmh WNW 17.5 mph28.2 kmh 29.77 in1008.1 mb 0.00 in0.0 mm 0.00 in0.0 mm 1.07 in27.2 mm
06:50 PM 61.7°F16.5°C 53.3°F11.8°C 74% 6.5 mph W10.5 kmh W 13.6 mph21.9 kmh 29.77 in1008.1 mb 0.00 in0.0 mm 0.00 in0.0 mm 1.07 in27.2 mm
07:00 PM 61.7°F16.5°C 53.3°F11.8°C 74% 6.3 mph W10.1 kmh W 19.0 mph30.6 kmh 29.77 in1008.1 mb 0.00 in0.0 mm 0.00 in0.0 mm 1.07 in27.2 mm
07:10 PM 61.5°F16.4°C 53.5°F11.9°C 75% 7.4 mph WNW11.9 kmh WNW 20.4 mph32.8 kmh 29.77 in1008.1 mb 0.00 in0.0 mm 0.00 in0.0 mm 1.07 in27.2 mm
07:20 PM 61.2°F16.2°C 53.9°F12.2°C 77% 6.2 mph W10.0 kmh W 15.4 mph24.8 kmh 29.77 in1008.1 mb 0.00 in0.0 mm 0.00 in0.0 mm 1.07 in27.2 mm
07:30 PM 61.0°F16.1°C 54.4°F12.4°C 79% 4.9 mph W7.9 kmh W 10.7 mph17.2 kmh 29.77 in1008.1 mb 0.00 in0.0 mm 0.00 in0.0 mm 1.07 in27.2 mm
07:40 PM 60.4°F15.8°C 54.2°F12.3°C 80% 6.5 mph W10.5 kmh W 12.9 mph20.8 kmh 29.77 in1008.1 mb 0.00 in0.0 mm 0.00 in0.0 mm 1.07 in27.2 mm
07:50 PM 60.3°F15.7°C 54.1°F12.3°C 80% 7.7 mph W12.4 kmh W 23.6 mph38.0 kmh 29.77 in1008.1 mb 0.00 in0.0 mm 0.00 in0.0 mm 1.07 in27.2 mm
08:00 PM 60.4°F15.8°C 53.9°F12.2°C 79% 7.5 mph W12.1 kmh W 27.2 mph43.8 kmh 29.77 in1008.1 mb 0.00 in0.0 mm 0.00 in0.0 mm 1.07 in27.2 mm
08:10 PM 60.4°F15.8°C 53.9°F12.2°C 79% 6.8 mph WNW10.9 kmh WNW 15.4 mph24.8 kmh 29.77 in1008.1 mb 0.00 in0.0 mm 0.00 in0.0 mm 1.07 in27.2 mm
08:20 PM 60.6°F15.9°C 54.1°F12.3°C 79% 7.3 mph W11.7 kmh W 20.8 mph33.5 kmh 29.74 in1007.1 mb 0.00 in0.0 mm 0.00 in0.0 mm 1.07 in27.2 mm
08:30 PM 60.6°F15.9°C 54.1°F12.3°C 79% 7.7 mph W12.4 kmh W 20.4 mph32.8 kmh 29.77 in1008.1 mb 0.00 in0.0 mm 0.00 in0.0 mm 1.07 in27.2 mm
08:40 PM 60.6°F15.9°C 54.1°F12.3°C 79% 8.1 mph W13.0 kmh W 23.3 mph37.5 kmh 29.77 in1008.1 mb 0.00 in0.0 mm 0.00 in0.0 mm 1.07 in27.2 mm
08:50 PM 60.6°F15.9°C 54.4°F12.4°C 80% 8.5 mph WNW13.7 kmh WNW 22.9 mph36.9 kmh 29.74 in1007.1 mb 0.00 in0.0 mm 0.00 in0.0 mm 1.07 in27.2 mm
09:00 PM 60.4°F15.8°C 54.6°F12.6°C 81% 8.2 mph W13.2 kmh W 18.3 mph29.5 kmh 29.77 in1008.1 mb 0.00 in0.0 mm 0.00 in0.0 mm 1.07 in27.2 mm
09:10 PM 60.3°F15.7°C 54.1°F12.3°C 80% 8.0 mph WNW12.9 kmh WNW 30.4 mph48.9 kmh 29.77 in1008.1 mb 0.00 in0.0 mm 0.00 in0.0 mm 1.07 in27.2 mm
09:20 PM 60.3°F15.7°C 53.7°F12.1°C 79% 7.7 mph WNW12.4 kmh WNW 20.0 mph32.2 kmh 29.77 in1008.1 mb 0.00 in0.0 mm 0.00 in0.0 mm 1.07 in27.2 mm
09:30 PM 60.4°F15.8°C 53.5°F11.9°C 78% 7.6 mph WNW12.2 kmh WNW 30.1 mph48.4 kmh 29.77 in1008.1 mb 0.00 in0.0 mm 0.00 in0.0 mm 1.07 in27.2 mm
09:40 PM 60.4°F15.8°C 53.9°F12.2°C 79% 9.4 mph WNW15.1 kmh WNW 34.4 mph55.4 kmh 29.77 in1008.1 mb 0.00 in0.0 mm 0.00 in0.0 mm 1.07 in27.2 mm
09:50 PM 60.4°F15.8°C 53.9°F12.2°C 79% 7.3 mph WNW11.7 kmh WNW 19.3 mph31.1 kmh 29.77 in1008.1 mb 0.00 in0.0 mm 0.00 in0.0 mm 1.07 in27.2 mm
10:00 PM 60.1°F15.6°C 53.2°F11.8°C 78% 8.7 mph WNW14.0 kmh WNW 20.0 mph32.2 kmh 29.80 in1009.1 mb 0.00 in0.0 mm 0.00 in0.0 mm 1.07 in27.2 mm
10:10 PM 59.9°F15.5°C 53.4°F11.9°C 79% 6.5 mph WNW10.5 kmh WNW 16.8 mph27.0 kmh 29.80 in1009.1 mb 0.00 in0.0 mm 0.00 in0.0 mm 1.07 in27.2 mm
10:20 PM 59.9°F15.5°C 53.4°F11.9°C 79% 7.7 mph WNW12.4 kmh WNW 28.6 mph46.0 kmh 29.80 in1009.1 mb 0.00 in0.0 mm 0.00 in0.0 mm 1.07 in27.2 mm
10:30 PM 59.5°F15.3°C 52.3°F11.3°C 77% 11.8 mph WNW19.0 kmh WNW 30.4 mph48.9 kmh 29.77 in1008.1 mb 0.00 in0.0 mm 0.00 in0.0 mm 1.07 in27.2 mm
10:40 PM 59.5°F15.3°C 51.6°F10.9°C 75% 9.1 mph W14.6 kmh W 22.9 mph36.9 kmh 29.77 in1008.1 mb 0.00 in0.0 mm 0.00 in0.0 mm 1.07 in27.2 mm
10:50 PM 59.5°F15.3°C 50.9°F10.5°C 73% 8.7 mph WNW14.0 kmh WNW 37.9 mph61.0 kmh 29.74 in1007.1 mb 0.00 in0.0 mm 0.00 in0.0 mm 1.07 in27.2 mm
11:00 PM 59.5°F15.3°C 52.0°F11.1°C 76% 7.0 mph W11.3 kmh W 22.2 mph35.7 kmh 29.80 in1009.1 mb 0.00 in0.0 mm 0.00 in0.0 mm 1.06 in26.9 mm
11:10 PM 59.5°F15.3°C 52.7°F11.5°C 78% 8.1 mph WNW13.0 kmh WNW 27.2 mph43.8 kmh 29.80 in1009.1 mb 0.00 in0.0 mm 0.00 in0.0 mm 1.06 in26.9 mm
11:20 PM 59.4°F15.2°C 53.5°F11.9°C 81% 7.7 mph WNW12.4 kmh WNW 16.8 mph27.0 kmh 29.74 in1007.1 mb 0.00 in0.0 mm 0.00 in0.0 mm 1.06 in26.9 mm
11:30 PM 59.0°F15.0°C 53.5°F11.9°C 82% 6.7 mph WNW10.8 kmh WNW 19.3 mph31.1 kmh 29.77 in1008.1 mb 0.00 in0.0 mm 0.00 in0.0 mm 1.06 in26.9 mm
11:40 PM 59.0°F15.0°C 53.5°F11.9°C 82% 6.0 mph W9.7 kmh W 15.4 mph24.8 kmh 29.77 in1008.1 mb 0.00 in0.0 mm 0.00 in0.0 mm 1.06 in26.9 mm
11:50 PM 59.0°F15.0°C 54.2°F12.3°C 84% 7.0 mph W11.3 kmh W 17.2 mph27.7 kmh 29.74 in1007.1 mb 0.00 in0.0 mm 0.00 in0.0 mm 1.06 in26.9 mm